Raleigh, Canada
Current Conditions -  °F | °C
As of 2:00 AM on Wednesday 26 Nov 2014 (Local Time) from CYAY Reporting Station
Clear Clear  
Wind Chill: 27°   Ceiling: Unl
Heat Index: 39°   Visibility: 9mi
Dew Point: 34°   Wind: 32mph
Humidity: 81%   Direction: 230°SW
Pressure: 29.34"   Gusts: 48mph
Location:  51.55°N, 55.72°W
Report Text: CYAY 260500Z AUTO 23028G42KT 9SM CLR 04/01 A2934 RMK SLP937
Loading
Personal Weather Stations






























Interactive Weather Map New forecast layout! Learn more

10-Day Weather Forecast

Advertisements
Track Severe Weather on mobile